Time;durP1;ratioP1;P1;durP2;ratioP2;P2;SDS_P1;SDS_P2;PMS_P1;PMS_P2;Temp;Humidity;BMP_temperature;BMP_pressure;BME280_temperature;BME280_humidity;BME280_pressure;Samples;Min_cycle;Max_cycle;Signal;HPM_P1;HPM_P2
2020/12/21 00:01:48;;;;;;;1.70;0.20;;;8.00;99.90;;;;;;5025024;28;20472;-57
2020/12/21 00:04:14;;;;;;;1.70;0.20;;;8.00;99.90;;;;;;5022740;28;20448;-57
2020/12/21 00:06:40;;;;;;;2.00;0.87;;;8.00;99.90;;;;;;5026734;28;20497;-58
2020/12/21 00:09:06;;;;;;;4.63;1.47;;;8.00;99.90;;;;;;5029051;28;20201;-58
2020/12/21 00:11:39;;;;;;;2.83;1.80;;;8.00;99.90;;;;;;5026152;28;20194;-58
2020/12/21 00:14:07;;;;;;;4.67;2.90;;;8.00;99.90;;;;;;5030148;28;20433;-58
2020/12/21 00:16:43;;;;;;;9.20;6.20;;;8.00;99.90;;;;;;5030203;28;20933;-58
2020/12/21 00:19:10;;;;;;;2.00;0.90;;;8.00;99.90;;;;;;5026991;28;20511;-58
2020/12/21 00:21:38;;;;;;;1.80;0.40;;;7.90;99.90;;;;;;5030145;28;20946;-58
2020/12/21 00:24:05;;;;;;;2.00;0.80;;;7.90;99.90;;;;;;5023556;28;20452;-58
2020/12/21 00:26:32;;;;;;;3.07;2.77;;;7.90;99.90;;;;;;5024055;28;20470;-57
2020/12/21 00:28:58;;;;;;;4.43;3.50;;;7.90;99.90;;;;;;5023276;28;20825;-58
2020/12/21 00:31:33;;;;;;;3.00;1.40;;;8.00;99.90;;;;;;5023721;28;20440;-58
2020/12/21 00:34:01;;;;;;;2.23;1.17;;;7.90;99.90;;;;;;5032663;28;20463;-58
2020/12/21 00:36:27;;;;;;;1.90;0.80;;;7.90;99.90;;;;;;5033113;28;20494;-58
2020/12/21 00:38:55;;;;;;;8.70;4.23;;;7.90;99.90;;;;;;5029564;28;20469;-58
2020/12/21 00:41:22;;;;;;;5.10;3.10;;;7.90;99.90;;;;;;5022869;28;20467;-57
2020/12/21 00:43:49;;;;;;;6.80;0.97;;;7.90;99.90;;;;;;5025221;28;20442;-58
2020/12/21 00:46:20;;;;;;;5.87;4.20;;;7.90;99.90;;;;;;5024649;28;20437;-59
2020/12/21 00:48:46;;;;;;;1.70;0.20;;;7.90;99.90;;;;;;5028511;28;20463;-57
2020/12/21 00:51:14;;;;;;;6.67;4.90;;;7.90;99.90;;;;;;5026442;28;20437;-58
2020/12/21 00:53:40;;;;;;;4.27;2.87;;;7.90;99.90;;;;;;5022340;28;20519;-58
2020/12/21 00:56:06;;;;;;;21.93;13.03;;;7.90;99.90;;;;;;5021755;28;20588;-58
2020/12/21 00:58:37;;;;;;;15.50;3.20;;;7.80;99.90;;;;;;5022357;28;20463;-57
2020/12/21 01:01:07;;;;;;;1.90;0.57;;;7.80;99.90;;;;;;5025468;28;20491;-57
2020/12/21 01:03:33;;;;;;;9.43;4.20;;;7.80;99.90;;;;;;5025456;28;20539;-58
2020/12/21 01:05:59;;;;;;;1.80;0.20;;;7.80;99.90;;;;;;5029324;28;20531;-58
2020/12/21 01:08:25;;;;;;;15.47;10.63;;;7.80;99.90;;;;;;5029654;28;20542;-58
2020/12/21 01:10:50;;;;;;;1.70;0.20;;;7.70;99.90;;;;;;5021057;28;20185;-58
2020/12/21 01:13:16;;;;;;;1.70;0.20;;;7.70;99.90;;;;;;5027494;28;20190;-57
2020/12/21 01:15:42;;;;;;;1.80;0.50;;;7.70;99.90;;;;;;5020382;28;20653;-57
2020/12/21 01:18:08;;;;;;;12.10;6.13;;;7.70;99.90;;;;;;5021724;28;20202;-57
2020/12/21 01:20:33;;;;;;;1.70;0.30;;;7.70;99.90;;;;;;5024566;28;20436;-57
2020/12/21 01:22:59;;;;;;;7.40;4.13;;;7.70;99.90;;;;;;5023026;28;20601;-57
2020/12/21 01:25:25;;;;;;;22.67;12.00;;;7.70;99.90;;;;;;5028624;28;20182;-57
2020/12/21 01:27:51;;;;;;;1.80;0.40;;;7.70;99.90;;;;;;5028735;28;20342;-57
2020/12/21 01:30:16;;;;;;;1.80;0.20;;;7.70;99.90;;;;;;5029006;28;20175;-57
2020/12/21 01:32:42;;;;;;;1.70;0.20;;;7.70;99.90;;;;;;5025091;28;20189;-57
2020/12/21 01:35:08;;;;;;;1.70;0.20;;;7.70;99.90;;;;;;5035339;28;20650;-57
2020/12/21 01:37:33;;;;;;;2.53;0.80;;;7.70;99.90;;;;;;5026753;28;20248;-57
2020/12/21 01:40:03;;;;;;;1.70;0.20;;;7.70;99.90;;;;;;5030468;28;20664;-58
2020/12/21 01:42:30;;;;;;;1.70;0.20;;;7.70;99.90;;;;;;5023318;28;20259;-57
2020/12/21 01:44:56;;;;;;;1.70;0.20;;;7.70;99.90;;;;;;5013717;28;20429;-57
2020/12/21 01:47:22;;;;;;;1.70;0.20;;;7.70;99.90;;;;;;5026052;28;20460;-57
2020/12/21 01:49:49;;;;;;;1.70;0.20;;;7.70;99.90;;;;;;5021501;28;20568;-57
2020/12/21 01:52:17;;;;;;;3.17;1.23;;;7.70;99.90;;;;;;5030086;28;20858;-57
2020/12/21 01:54:45;;;;;;;2.00;0.93;;;7.70;99.90;;;;;;5027423;28;20437;-58
2020/12/21 01:57:10;;;;;;;5.43;1.37;;;7.70;99.90;;;;;;5023631;28;20971;-57
2020/12/21 01:59:36;;;;;;;1.70;0.20;;;7.70;99.90;;;;;;5029755;28;20487;-57
2020/12/21 02:02:02;;;;;;;1.70;0.30;;;7.70;99.90;;;;;;5025700;28;20285;-58
2020/12/21 02:04:28;;;;;;;2.87;2.40;;;7.70;99.90;;;;;;5019910;28;20240;-57
2020/12/21 02:06:54;;;;;;;4.50;3.90;;;7.70;99.90;;;;;;5018215;28;20441;-57
2020/12/21 02:09:20;;;;;;;5.10;1.50;;;7.70;99.90;;;;;;5023046;28;20185;-57
2020/12/21 02:11:46;;;;;;;1.80;0.40;;;7.70;99.90;;;;;;5026005;28;20445;-57
2020/12/21 02:14:12;;;;;;;10.10;5.20;;;7.70;99.90;;;;;;5026723;28;20197;-57
2020/12/21 02:16:37;;;;;;;1.70;0.20;;;7.70;99.90;;;;;;5026417;28;20239;-58
2020/12/21 02:19:04;;;;;;;1.70;0.20;;;7.70;99.90;;;;;;5028557;28;20182;-58
2020/12/21 02:21:30;;;;;;;1.70;0.20;;;7.70;99.90;;;;;;5024916;28;20189;-58
2020/12/21 02:23:56;;;;;;;1.70;0.20;;;7.70;99.90;;;;;;5019614;28;20430;-58
2020/12/21 02:26:22;;;;;;;2.37;1.17;;;7.80;99.90;;;;;;5018867;28;20429;-58
2020/12/21 02:28:52;;;;;;;8.13;5.13;;;7.80;99.90;;;;;;5020201;28;20809;-57
2020/12/21 02:31:18;;;;;;;2.00;0.70;;;7.80;99.90;;;;;;5023814;28;20193;-58
2020/12/21 02:33:45;;;;;;;6.77;3.93;;;7.80;99.90;;;;;;5028222;28;20448;-58
2020/12/21 02:36:11;;;;;;;1.70;0.20;;;7.80;99.90;;;;;;5024153;28;20492;-58
2020/12/21 02:38:37;;;;;;;3.90;2.33;;;7.80;99.90;;;;;;5019004;28;20497;-58
2020/12/21 02:41:03;;;;;;;1.70;0.20;;;7.80;99.90;;;;;;5022781;28;20705;-58
2020/12/21 02:43:29;;;;;;;1.77;0.43;;;7.90;99.90;;;;;;5030251;28;20559;-57
2020/12/21 02:45:54;;;;;;;1.70;0.20;;;7.90;99.90;;;;;;5025637;28;20186;-57
2020/12/21 02:48:20;;;;;;;4.30;2.53;;;7.90;99.90;;;;;;5030857;28;20212;-57
2020/12/21 02:50:46;;;;;;;10.23;3.27;;;7.90;99.90;;;;;;5023434;28;20548;-58
2020/12/21 02:53:13;;;;;;;1.70;0.20;;;7.90;99.90;;;;;;5029410;28;20186;-57
2020/12/21 02:55:39;;;;;;;1.77;0.33;;;7.90;99.90;;;;;;5024450;28;20801;-58
2020/12/21 02:58:05;;;;;;;6.80;2.93;;;7.90;99.90;;;;;;5024040;28;20457;-58
2020/12/21 03:00:34;;;;;;;1.70;0.30;;;7.90;99.90;;;;;;5010371;28;20197;-58
2020/12/21 03:03:03;;;;;;;2.77;1.27;;;7.90;99.90;;;;;;5025714;28;20472;-57
2020/12/21 03:05:29;;;;;;;1.70;0.20;;;7.90;99.90;;;;;;5026120;28;20455;-57
2020/12/21 03:07:55;;;;;;;4.80;2.30;;;8.00;99.90;;;;;;5023054;28;20441;-57
2020/12/21 03:10:21;;;;;;;1.70;0.20;;;7.90;99.90;;;;;;5029382;28;20447;-58
2020/12/21 03:12:47;;;;;;;8.50;4.37;;;7.90;99.90;;;;;;5022925;28;20445;-57
2020/12/21 03:15:12;;;;;;;1.70;0.20;;;7.90;99.90;;;;;;5021790;28;20233;-57
2020/12/21 03:17:38;;;;;;;1.80;0.30;;;7.90;99.90;;;;;;5027774;28;20206;-57
2020/12/21 03:20:04;;;;;;;1.70;0.20;;;7.90;99.90;;;;;;5021702;28;20182;-58
2020/12/21 03:22:30;;;;;;;1.70;0.20;;;7.90;99.90;;;;;;5024545;28;20206;-58
2020/12/21 03:24:57;;;;;;;1.70;0.20;;;7.90;99.90;;;;;;5024658;28;20450;-57
2020/12/21 03:27:23;;;;;;;1.70;0.20;;;7.90;99.90;;;;;;5018532;28;20336;-56
2020/12/21 03:29:49;;;;;;;1.70;0.20;;;7.80;99.90;;;;;;5027057;28;20861;-58
2020/12/21 03:32:14;;;;;;;1.77;0.20;;;7.80;99.90;;;;;;5026835;28;20527;-57
2020/12/21 03:34:40;;;;;;;1.70;0.20;;;7.80;99.90;;;;;;5030867;28;20260;-58
2020/12/21 03:37:06;;;;;;;1.70;0.20;;;7.80;99.90;;;;;;5029898;28;20356;-58
2020/12/21 03:39:32;;;;;;;1.70;0.20;;;7.80;99.90;;;;;;5026456;28;20190;-58
2020/12/21 03:41:58;;;;;;;1.90;0.40;;;7.80;99.90;;;;;;5020811;28;20231;-58
2020/12/21 03:44:23;;;;;;;1.70;0.20;;;7.70;99.90;;;;;;5030162;28;20495;-57
2020/12/21 03:46:49;;;;;;;1.70;0.20;;;7.70;99.90;;;;;;4998660;28;674903;-56
2020/12/21 03:49:15;;;;;;;1.70;0.20;;;7.70;99.90;;;;;;5035907;28;20173;-56
2020/12/21 03:51:40;;;;;;;12.97;12.07;;;7.70;99.90;;;;;;5028510;28;20216;-57
2020/12/21 03:54:06;;;;;;;1.70;0.20;;;7.70;99.90;;;;;;5021071;28;20182;-56
2020/12/21 03:56:32;;;;;;;1.73;0.20;;;7.60;99.90;;;;;;5008054;28;20186;-57
2020/12/21 03:58:57;;;;;;;1.70;0.20;;;7.60;99.90;;;;;;5028240;28;20249;-57
2020/12/21 04:01:23;;;;;;;1.70;0.20;;;7.60;99.90;;;;;;5029144;28;20738;-57
2020/12/21 04:03:49;;;;;;;6.13;0.90;;;7.60;99.90;;;;;;5027440;28;20190;-57
2020/12/21 04:06:14;;;;;;;1.70;0.20;;;7.60;99.90;;;;;;5028963;28;20210;-57
2020/12/21 04:08:40;;;;;;;2.20;1.17;;;7.50;99.90;;;;;;5028721;28;20303;-58
2020/12/21 04:11:06;;;;;;;1.77;0.30;;;7.50;99.90;;;;;;5029686;28;20240;-57
2020/12/21 04:13:32;;;;;;;1.70;0.20;;;7.50;99.90;;;;;;5028723;28;20205;-57
2020/12/21 04:15:59;;;;;;;1.70;0.20;;;7.50;99.90;;;;;;5032208;28;20820;-57
2020/12/21 04:18:24;;;;;;;4.70;1.73;;;7.50;99.90;;;;;;5009877;28;20519;-57
2020/12/21 04:20:50;;;;;;;2.00;0.97;;;7.50;99.90;;;;;;5021475;28;20475;-57
2020/12/21 04:23:17;;;;;;;1.70;0.20;;;7.50;99.90;;;;;;5028960;28;20256;-57
2020/12/21 04:25:43;;;;;;;3.27;2.80;;;7.40;99.90;;;;;;5026812;28;20185;-57
2020/12/21 04:28:08;;;;;;;1.70;0.20;;;7.50;99.90;;;;;;5020619;28;20445;-57
2020/12/21 04:30:34;;;;;;;1.70;0.20;;;7.50;99.90;;;;;;5023085;28;20264;-57
2020/12/21 04:33:00;;;;;;;1.70;0.20;;;7.40;99.90;;;;;;5028336;28;20680;-57
2020/12/21 04:35:25;;;;;;;1.70;0.20;;;7.50;99.90;;;;;;5024629;28;20261;-57
2020/12/21 04:37:52;;;;;;;1.70;0.20;;;7.40;99.90;;;;;;5022676;28;20306;-57
2020/12/21 04:40:19;;;;;;;1.70;0.20;;;7.40;99.90;;;;;;5021726;28;20191;-57
2020/12/21 04:42:47;;;;;;;3.83;2.43;;;7.50;99.90;;;;;;5026704;28;20974;-57
2020/12/21 04:45:12;;;;;;;1.70;0.20;;;7.40;99.90;;;;;;5024979;28;20514;-57
2020/12/21 04:47:41;;;;;;;1.70;0.20;;;7.50;99.90;;;;;;5025201;28;20552;-57
2020/12/21 04:50:10;;;;;;;1.70;0.20;;;7.50;99.90;;;;;;5021190;28;20441;-57
2020/12/21 04:52:49;;;;;;;1.70;0.20;;;7.60;99.90;;;;;;5030596;28;20448;-57
2020/12/21 04:55:19;;;;;;;1.73;0.20;;;7.50;99.90;;;;;;5025934;28;20432;-57
2020/12/21 04:57:56;;;;;;;1.70;0.20;;;7.60;99.90;;;;;;5017810;28;20470;-57
2020/12/21 05:00:22;;;;;;;4.60;2.33;;;7.60;99.90;;;;;;5029897;28;20432;-58
2020/12/21 05:02:48;;;;;;;2.47;1.60;;;7.60;99.90;;;;;;5042335;23;20519;-63
2020/12/21 05:05:14;;;;;;;1.70;0.20;;;7.60;99.90;;;;;;5041633;28;20476;-63
2020/12/21 05:07:40;;;;;;;1.70;0.20;;;7.60;99.90;;;;;;5032893;28;20186;-63
2020/12/21 05:10:09;;;;;;;1.80;0.40;;;7.60;99.90;;;;;;5032357;28;20452;-62
2020/12/21 05:12:36;;;;;;;1.70;0.20;;;7.60;99.90;;;;;;5036994;28;20213;-63
2020/12/21 05:15:23;;;;;;;1.70;0.20;;;7.60;99.90;;;;;;5023167;28;20922;-62
2020/12/21 05:17:48;;;;;;;1.70;0.20;;;7.60;99.90;;;;;;5030760;28;20432;-63
2020/12/21 05:20:14;;;;;;;1.70;0.20;;;7.60;99.90;;;;;;5036198;28;20873;-63
2020/12/21 05:22:40;;;;;;;1.70;0.20;;;7.60;99.90;;;;;;5029394;28;20894;-62
2020/12/21 05:25:09;;;;;;;1.70;0.20;;;7.60;99.90;;;;;;5033620;28;20201;-61
2020/12/21 05:27:35;;;;;;;1.70;0.20;;;7.60;99.90;;;;;;5025850;28;20190;-62
2020/12/21 05:30:02;;;;;;;2.37;1.00;;;7.60;99.90;;;;;;5008868;28;20465;-63
2020/12/21 05:32:28;;;;;;;4.80;1.60;;;7.60;99.90;;;;;;5006931;28;20445;-61
2020/12/21 05:35:05;;;;;;;1.70;0.20;;;7.60;99.90;;;;;;5032774;28;20519;-61
2020/12/21 05:37:31;;;;;;;1.70;0.20;;;7.70;99.90;;;;;;5026488;28;20193;-62
2020/12/21 05:39:57;;;;;;;1.70;0.20;;;7.70;99.90;;;;;;5021345;28;20432;-62
2020/12/21 05:42:24;;;;;;;1.70;0.20;;;7.60;99.90;;;;;;5033171;28;20819;-62
2020/12/21 05:44:57;;;;;;;1.70;0.20;;;7.60;99.90;;;;;;5022438;28;20532;-62
2020/12/21 05:47:27;;;;;;;6.10;5.70;;;7.70;99.90;;;;;;5033945;28;20974;-62
2020/12/21 05:50:04;;;;;;;1.70;0.20;;;7.80;99.90;;;;;;5043453;28;20435;-61
2020/12/21 05:52:34;;;;;;;1.70;0.20;;;7.80;99.90;;;;;;5027639;28;21026;-62
2020/12/21 05:55:09;;;;;;;2.20;1.70;;;7.80;99.90;;;;;;5021816;28;20432;-62
2020/12/21 05:57:36;;;;;;;1.70;0.20;;;7.70;99.90;;;;;;5032749;28;20523;-62
2020/12/21 06:00:10;;;;;;;1.70;0.20;;;7.60;99.90;;;;;;5009935;28;20442;-61
2020/12/21 06:02:37;;;;;;;1.70;0.20;;;7.60;99.90;;;;;;5013454;28;20468;-63
2020/12/21 06:05:06;;;;;;;1.70;0.20;;;7.60;99.90;;;;;;5008159;28;20468;-62
2020/12/21 06:07:33;;;;;;;1.70;0.20;;;7.50;99.90;;;;;;5024300;28;20512;-61
2020/12/21 06:10:01;;;;;;;1.80;0.40;;;7.50;99.90;;;;;;5031609;28;20535;-63
2020/12/21 06:12:30;;;;;;;1.73;0.20;;;7.50;99.90;;;;;;5014935;28;20429;-63
2020/12/21 06:15:11;;;;;;;1.70;0.20;;;7.50;99.90;;;;;;5025686;28;20461;-62
2020/12/21 06:17:37;;;;;;;1.70;0.20;;;7.50;99.90;;;;;;5025341;28;20815;-63
2020/12/21 06:20:05;;;;;;;1.70;0.20;;;7.60;99.90;;;;;;5036126;28;20423;-63
2020/12/21 06:22:30;;;;;;;1.70;0.20;;;7.70;99.90;;;;;;5030403;28;20552;-62
2020/12/21 06:24:56;;;;;;;1.70;0.20;;;7.80;99.90;;;;;;5037277;28;20515;-62
2020/12/21 06:27:22;;;;;;;1.70;0.20;;;7.80;99.90;;;;;;5038210;28;20232;-63
2020/12/21 06:29:58;;;;;;;1.70;0.20;;;7.80;99.90;;;;;;5027516;28;20645;-63
2020/12/21 06:32:32;;;;;;;1.70;0.20;;;7.90;99.90;;;;;;5030117;28;20544;-63
2020/12/21 06:34:59;;;;;;;1.70;0.20;;;7.90;99.90;;;;;;5025781;28;20435;-63
2020/12/21 06:37:24;;;;;;;1.70;0.20;;;8.00;99.90;;;;;;5031592;28;20440;-63
2020/12/21 06:39:58;;;;;;;1.70;0.20;;;8.00;99.90;;;;;;5021931;28;20438;-63
2020/12/21 06:42:27;;;;;;;1.70;0.20;;;7.90;99.90;;;;;;5034005;28;20728;-63
2020/12/21 06:44:54;;;;;;;1.70;0.20;;;7.90;99.90;;;;;;5027681;28;20806;-62
2020/12/21 06:47:25;;;;;;;1.70;0.20;;;7.90;99.90;;;;;;5029131;28;20437;-63
2020/12/21 06:49:52;;;;;;;1.70;0.20;;;7.90;99.90;;;;;;5032439;28;20486;-63
2020/12/21 06:52:18;;;;;;;1.70;0.20;;;7.90;99.90;;;;;;5040462;28;20440;-63
2020/12/21 06:54:44;;;;;;;1.70;0.20;;;7.90;99.90;;;;;;5045578;28;20449;-65
2020/12/21 06:57:11;;;;;;;1.70;0.20;;;7.80;99.90;;;;;;5048800;28;20485;-64
2020/12/21 06:59:37;;;;;;;1.70;0.20;;;7.80;99.90;;;;;;5026324;28;20202;-63
2020/12/21 07:02:03;;;;;;;1.70;0.20;;;7.70;99.90;;;;;;5035573;28;20468;-64
2020/12/21 07:04:31;;;;;;;1.70;0.20;;;7.70;99.90;;;;;;5027960;28;20216;-63
2020/12/21 07:06:59;;;;;;;1.70;0.20;;;7.60;99.90;;;;;;5009879;28;20505;-65
2020/12/21 07:09:27;;;;;;;1.70;0.20;;;7.50;99.90;;;;;;5035970;28;20449;-63
2020/12/21 07:11:54;;;;;;;1.70;0.20;;;7.40;99.90;;;;;;5029855;28;20930;-63
2020/12/21 07:14:22;;;;;;;1.70;0.20;;;7.40;99.90;;;;;;5030231;28;20461;-62
2020/12/21 07:16:48;;;;;;;1.70;0.20;;;7.40;99.90;;;;;;5036877;28;20452;-63
2020/12/21 07:19:14;;;;;;;1.70;0.20;;;7.30;99.90;;;;;;5023007;28;20978;-62
2020/12/21 07:21:41;;;;;;;1.70;0.20;;;7.30;99.90;;;;;;5032225;28;20441;-62
2020/12/21 07:24:09;;;;;;;1.70;0.20;;;7.30;99.90;;;;;;5034132;28;20193;-62
2020/12/21 07:26:36;;;;;;;1.70;0.20;;;7.30;99.90;;;;;;5026877;28;20444;-63
2020/12/21 07:29:02;;;;;;;1.70;0.20;;;7.40;99.90;;;;;;5024909;28;20457;-62
2020/12/21 07:31:28;;;;;;;1.70;0.20;;;7.40;99.90;;;;;;5036624;28;20884;-63
2020/12/21 07:33:59;;;;;;;1.70;0.20;;;7.50;99.90;;;;;;5032473;28;20447;-63
2020/12/21 07:36:38;;;;;;;1.70;0.20;;;7.60;99.90;;;;;;5038333;28;20526;-63
2020/12/21 07:39:15;;;;;;;1.70;0.20;;;7.50;99.90;;;;;;5036821;28;20432;-64
2020/12/21 07:41:46;;;;;;;2.13;1.23;;;7.40;99.90;;;;;;5034674;28;20444;-62
2020/12/21 07:44:26;;;;;;;1.70;0.20;;;7.40;99.90;;;;;;5040753;28;20948;-63
2020/12/21 07:47:07;;;;;;;1.70;0.20;;;7.40;99.90;;;;;;5044281;28;20910;-63
2020/12/21 07:49:37;;;;;;;1.70;0.20;;;7.30;99.90;;;;;;5026261;28;20778;-62
2020/12/21 07:52:07;;;;;;;1.70;0.20;;;7.30;99.90;;;;;;5037355;28;20450;-63
2020/12/21 07:54:44;;;;;;;1.70;0.20;;;7.30;99.90;;;;;;5041119;28;20500;-62
2020/12/21 07:57:14;;;;;;;1.70;0.20;;;7.40;99.90;;;;;;5026683;28;20441;-62
2020/12/21 07:59:40;;;;;;;1.70;0.20;;;7.40;99.90;;;;;;5032936;28;20441;-62
2020/12/21 08:02:08;;;;;;;1.70;0.20;;;7.40;99.90;;;;;;5038533;28;21004;-62
2020/12/21 08:04:34;;;;;;;1.77;0.30;;;7.40;99.90;;;;;;5020596;28;20480;-63
2020/12/21 08:07:10;;;;;;;1.70;0.20;;;7.40;99.90;;;;;;5040143;28;20441;-65
2020/12/21 08:09:40;;;;;;;1.70;0.20;;;7.40;99.90;;;;;;5033229;28;20780;-62
2020/12/21 08:12:10;;;;;;;1.70;0.20;;;7.40;99.90;;;;;;5025485;28;20456;-62
2020/12/21 08:14:36;;;;;;;1.70;0.20;;;7.40;99.90;;;;;;5029804;28;20990;-63
2020/12/21 08:17:15;;;;;;;1.70;0.20;;;7.50;99.90;;;;;;5041392;28;20440;-63
2020/12/21 08:19:48;;;;;;;1.70;0.20;;;7.60;99.90;;;;;;5034374;28;20451;-65
2020/12/21 08:22:28;;;;;;;81.90;73.90;;;7.60;99.90;;;;;;5029057;28;20526;-62
2020/12/21 08:25:11;;;;;;;1.70;0.20;;;7.70;99.90;;;;;;5040117;28;20465;-63
2020/12/21 08:27:48;;;;;;;1.70;0.20;;;7.70;99.90;;;;;;5023318;28;20442;-63
2020/12/21 08:30:16;;;;;;;1.70;0.20;;;7.70;99.90;;;;;;5029963;28;20475;-62
2020/12/21 08:32:42;;;;;;;1.70;0.20;;;7.70;99.90;;;;;;5028285;28;20971;-63
2020/12/21 08:35:09;;;;;;;1.70;0.20;;;7.60;99.90;;;;;;5041113;28;20448;-62
2020/12/21 08:37:36;;;;;;;1.70;0.20;;;7.60;99.90;;;;;;5028034;28;20440;-64
2020/12/21 08:40:14;;;;;;;1.70;0.20;;;7.60;99.90;;;;;;5036625;28;20597;-62
2020/12/21 08:42:41;;;;;;;1.70;0.20;;;7.70;99.90;;;;;;5039281;28;20482;-62
2020/12/21 08:45:08;;;;;;;1.70;0.20;;;7.70;99.90;;;;;;5026891;28;20491;-62
2020/12/21 08:47:35;;;;;;;1.70;0.20;;;7.80;99.90;;;;;;5040726;28;20846;-63
2020/12/21 08:50:04;;;;;;;1.90;0.83;;;7.80;99.90;;;;;;5032647;28;20530;-62
2020/12/21 08:52:30;;;;;;;1.70;0.20;;;7.80;99.90;;;;;;5011679;28;20452;-62
2020/12/21 08:54:55;;;;;;;1.70;0.20;;;7.90;99.90;;;;;;5043098;28;20456;-65
2020/12/21 08:57:21;;;;;;;1.70;0.20;;;7.90;99.90;;;;;;5030974;28;20194;-63
2020/12/21 08:59:47;;;;;;;1.70;0.20;;;7.90;99.90;;;;;;5046540;28;20179;-62
2020/12/21 09:02:12;;;;;;;1.70;0.20;;;8.00;99.90;;;;;;5046282;28;20671;-63
2020/12/21 09:04:38;;;;;;;1.70;0.20;;;8.00;99.90;;;;;;5038590;28;20238;-62
2020/12/21 09:07:04;;;;;;;1.70;0.20;;;8.10;99.90;;;;;;5049654;28;20177;-62
2020/12/21 09:09:30;;;;;;;1.70;0.20;;;8.10;99.90;;;;;;5045350;28;20594;-61
2020/12/21 09:11:55;;;;;;;1.70;0.20;;;8.20;99.90;;;;;;5029295;28;20288;-61
2020/12/21 09:14:24;;;;;;;1.70;0.20;;;8.20;99.90;;;;;;5034021;28;20227;-64
2020/12/21 09:16:53;;;;;;;1.70;0.20;;;8.30;99.90;;;;;;5020516;28;20185;-64
2020/12/21 09:19:19;;;;;;;1.70;0.20;;;8.30;99.90;;;;;;5031371;28;20450;-65
2020/12/21 09:21:45;;;;;;;1.70;0.20;;;8.30;99.90;;;;;;5018779;28;20444;-64
2020/12/21 09:24:11;;;;;;;1.70;0.20;;;8.30;99.90;;;;;;5015850;28;20538;-64
2020/12/21 09:26:37;;;;;;;1.70;0.20;;;8.30;99.90;;;;;;5024117;28;20452;-64
2020/12/21 09:29:04;;;;;;;1.70;0.20;;;8.30;99.90;;;;;;5029855;28;20432;-64
2020/12/21 09:31:30;;;;;;;1.70;0.20;;;8.40;99.90;;;;;;5023040;28;20183;-65
2020/12/21 09:33:56;;;;;;;1.70;0.20;;;8.40;99.90;;;;;;5027021;28;20543;-64
2020/12/21 09:36:22;;;;;;;1.70;0.20;;;8.50;99.90;;;;;;5038131;28;20434;-63
2020/12/21 09:38:49;;;;;;;1.70;0.20;;;8.50;99.90;;;;;;5029056;28;20205;-64
2020/12/21 09:41:18;;;;;;;2.10;0.83;;;8.50;99.90;;;;;;5029221;28;20449;-63
2020/12/21 09:43:45;;;;;;;1.70;0.20;;;8.50;99.90;;;;;;5037072;28;20468;-64
2020/12/21 09:46:21;;;;;;;2.40;1.03;;;8.50;99.90;;;;;;5028723;28;20866;-64
2020/12/21 09:48:48;;;;;;;1.70;0.20;;;8.50;99.90;;;;;;5040350;28;20429;-64
2020/12/21 09:51:14;;;;;;;2.00;0.40;;;8.50;99.90;;;;;;5047989;28;20440;-64
2020/12/21 09:53:40;;;;;;;2.40;0.83;;;8.50;99.90;;;;;;5043227;28;20463;-63
2020/12/21 09:56:09;;;;;;;1.70;0.30;;;8.50;99.90;;;;;;5038422;28;20797;-63
2020/12/21 09:58:35;;;;;;;1.70;0.20;;;8.60;99.90;;;;;;5017726;28;20540;-63
2020/12/21 10:01:00;;;;;;;1.70;0.20;;;8.60;99.90;;;;;;5029623;28;20464;-63
2020/12/21 10:03:26;;;;;;;2.00;0.77;;;8.60;99.90;;;;;;5033490;28;20218;-64
2020/12/21 10:05:51;;;;;;;1.70;0.20;;;8.60;99.90;;;;;;5036218;28;20222;-64
2020/12/21 10:08:17;;;;;;;1.70;0.20;;;8.70;99.90;;;;;;5013470;28;20186;-63
2020/12/21 10:10:47;;;;;;;1.70;0.20;;;8.70;99.90;;;;;;5028200;28;20213;-63
2020/12/21 10:13:12;;;;;;;1.73;0.20;;;8.80;99.90;;;;;;5010125;28;20210;-65
2020/12/21 10:15:38;;;;;;;1.70;0.30;;;8.80;99.90;;;;;;5009673;28;20463;-64
2020/12/21 10:18:03;;;;;;;1.77;0.30;;;8.90;99.90;;;;;;5026096;28;20259;-65
2020/12/21 10:20:29;;;;;;;1.70;0.20;;;8.80;99.90;;;;;;5028377;28;20190;-64
2020/12/21 10:22:55;;;;;;;1.70;0.20;;;8.90;99.90;;;;;;5027782;28;20243;-64
2020/12/21 10:25:21;;;;;;;1.70;0.20;;;8.90;99.90;;;;;;5026938;28;20186;-64
2020/12/21 10:27:47;;;;;;;1.70;0.20;;;9.00;99.90;;;;;;5026402;28;20487;-65
2020/12/21 10:30:14;;;;;;;2.53;0.67;;;9.00;99.90;;;;;;5028402;28;20186;-64
2020/12/21 10:32:43;;;;;;;1.70;0.20;;;9.00;99.90;;;;;;5040081;28;20668;-66
2020/12/21 10:35:08;;;;;;;1.70;0.20;;;9.00;99.90;;;;;;5025385;28;20804;-65
2020/12/21 10:37:34;;;;;;;1.70;0.20;;;9.00;99.90;;;;;;5035313;28;20449;-65
2020/12/21 10:40:00;;;;;;;1.70;0.20;;;9.00;99.90;;;;;;5030670;28;20541;-64
2020/12/21 10:42:25;;;;;;;1.70;0.20;;;9.10;99.90;;;;;;5030089;28;20214;-64
2020/12/21 10:44:51;;;;;;;1.70;0.20;;;9.10;99.90;;;;;;5029583;28;20261;-63
2020/12/21 10:47:17;;;;;;;3.90;3.60;;;9.20;99.90;;;;;;5029614;28;20194;-64
2020/12/21 10:49:42;;;;;;;1.70;0.20;;;9.20;99.90;;;;;;5029630;28;20179;-63
2020/12/21 10:52:08;;;;;;;1.70;0.20;;;9.20;99.90;;;;;;5027984;28;20213;-64
2020/12/21 10:54:34;;;;;;;1.70;0.20;;;9.30;99.90;;;;;;5038604;28;20218;-64
2020/12/21 10:57:02;;;;;;;1.70;0.20;;;9.40;99.90;;;;;;5033743;28;20284;-64
2020/12/21 10:59:29;;;;;;;1.70;0.20;;;9.40;99.90;;;;;;5014870;28;20518;-64
2020/12/21 11:01:55;;;;;;;1.70;0.20;;;9.50;99.90;;;;;;5029769;28;20789;-63
2020/12/21 11:04:20;;;;;;;1.70;0.20;;;9.50;99.90;;;;;;5032309;28;20556;-64
2020/12/21 11:06:46;;;;;;;1.70;0.20;;;9.50;99.90;;;;;;5034697;28;20645;-63
2020/12/21 11:09:12;;;;;;;1.70;0.20;;;9.60;99.90;;;;;;5029458;28;20194;-63
2020/12/21 11:11:37;;;;;;;1.77;0.20;;;9.60;99.90;;;;;;5043284;28;20248;-63
2020/12/21 11:14:04;;;;;;;1.70;0.20;;;9.60;99.90;;;;;;5030577;28;20342;-64
2020/12/21 11:16:31;;;;;;;1.70;0.20;;;9.70;99.90;;;;;;5031331;28;20181;-63
2020/12/21 11:18:58;;;;;;;1.70;0.20;;;9.70;99.90;;;;;;5028298;28;20514;-65
2020/12/21 11:21:23;;;;;;;1.80;0.50;;;9.70;99.90;;;;;;5033905;28;20960;-65
2020/12/21 11:23:49;;;;;;;1.70;0.20;;;9.70;99.90;;;;;;5040529;28;20533;-66
2020/12/21 11:26:15;;;;;;;3.60;1.43;;;9.70;99.90;;;;;;5029550;28;20668;-65
2020/12/21 11:28:41;;;;;;;2.87;0.70;;;9.70;99.90;;;;;;5025243;28;20190;-64
2020/12/21 11:31:07;;;;;;;1.70;0.20;;;9.70;99.90;;;;;;5032265;28;20449;-66
2020/12/21 11:33:33;;;;;;;1.70;0.20;;;9.70;99.90;;;;;;5022320;28;20459;-66
2020/12/21 11:35:59;;;;;;;1.70;0.20;;;9.70;99.90;;;;;;5035208;28;20441;-66
2020/12/21 11:38:25;;;;;;;1.70;0.20;;;9.80;99.90;;;;;;5029960;28;20496;-66
2020/12/21 11:40:50;;;;;;;1.70;0.20;;;9.80;99.90;;;;;;5022141;28;20185;-65
2020/12/21 11:43:17;;;;;;;1.70;0.20;;;9.80;99.90;;;;;;5028429;28;20214;-65
2020/12/21 11:45:47;;;;;;;2.00;0.43;;;9.90;99.90;;;;;;5026380;28;20264;-66
2020/12/21 11:48:13;;;;;;;1.70;0.20;;;9.90;99.90;;;;;;5027991;28;20464;-66
2020/12/21 11:50:38;;;;;;;2.03;0.80;;;9.90;99.90;;;;;;5039600;28;20440;-66
2020/12/21 11:53:04;;;;;;;9.57;2.70;;;9.90;99.90;;;;;;5045752;28;20216;-66
2020/12/21 11:55:30;;;;;;;1.70;0.20;;;9.90;99.90;;;;;;5038152;28;20197;-66
2020/12/21 11:57:55;;;;;;;1.70;0.20;;;9.90;99.90;;;;;;5029944;28;20189;-65
2020/12/21 12:00:21;;;;;;;1.70;0.20;;;9.90;99.90;;;;;;5060250;22;21001;-57
2020/12/21 12:02:47;;;;;;;1.70;0.20;;;9.90;99.90;;;;;;5053113;28;20213;-56
2020/12/21 12:05:13;;;;;;;1.87;0.47;;;9.90;99.90;;;;;;5048013;28;20197;-56
2020/12/21 12:07:39;;;;;;;3.97;3.20;;;10.00;99.90;;;;;;5057991;28;20193;-56
2020/12/21 12:10:06;;;;;;;1.70;0.20;;;9.90;99.90;;;;;;5046845;28;20460;-55
2020/12/21 12:12:32;;;;;;;3.07;1.93;;;9.90;99.90;;;;;;5048593;28;20957;-61
2020/12/21 12:14:58;;;;;;;1.70;0.20;;;9.80;99.90;;;;;;5042290;28;20443;-56
2020/12/21 12:17:24;;;;;;;1.70;0.20;;;9.70;99.90;;;;;;5046488;28;20451;-56
2020/12/21 12:19:50;;;;;;;4.73;1.40;;;9.70;99.90;;;;;;5048396;28;20730;-56
2020/12/21 12:22:16;;;;;;;1.90;0.53;;;9.80;99.90;;;;;;5046913;28;21571;-57
2020/12/21 12:24:42;;;;;;;12.63;4.53;;;9.80;99.90;;;;;;5053646;28;20264;-56
2020/12/21 12:27:07;;;;;;;2.00;0.60;;;9.80;99.90;;;;;;5049865;28;20524;-56
2020/12/21 12:29:33;;;;;;;5.30;1.77;;;9.80;99.90;;;;;;5048658;28;20181;-56
2020/12/21 12:31:59;;;;;;;1.80;0.30;;;9.70;99.90;;;;;;5052980;28;20724;-57
2020/12/21 12:34:24;;;;;;;2.17;0.97;;;9.60;99.90;;;;;;5048166;28;20184;-57
2020/12/21 12:36:50;;;;;;;1.70;0.20;;;9.60;99.90;;;;;;5062280;28;20271;-56
2020/12/21 12:39:16;;;;;;;3.50;1.93;;;9.60;99.90;;;;;;5049156;28;20667;-56
2020/12/21 12:41:42;;;;;;;1.90;0.40;;;9.60;99.90;;;;;;5050480;28;20200;-56
2020/12/21 12:44:09;;;;;;;1.73;0.30;;;9.50;99.90;;;;;;5049345;28;20695;-56
2020/12/21 12:46:35;;;;;;;1.70;0.20;;;9.60;99.90;;;;;;5048198;28;20462;-56
2020/12/21 12:49:03;;;;;;;1.70;0.20;;;9.60;99.90;;;;;;5055007;28;20511;-58
2020/12/21 12:51:28;;;;;;;1.70;0.20;;;9.60;99.90;;;;;;5050988;28;20810;-56
2020/12/21 12:53:54;;;;;;;2.53;1.07;;;9.70;99.90;;;;;;5062099;28;20435;-56
2020/12/21 12:56:21;;;;;;;2.53;1.23;;;9.70;99.90;;;;;;5047223;28;20655;-56